Time;durP1;ratioP1;P1;durP2;ratioP2;P2;SDS_P1;SDS_P2;PMS_P1;PMS_P2;Temp;Humidity;BMP_temperature;BMP_pressure;BME280_temperature;BME280_humidity;BME280_pressure;Samples;Min_cycle;Max_cycle;Signal;HPM_P1;HPM_P2
2022/04/22 00:01:17;;;;;;;11.10;6.23;;;6.30;1.00;;;;;;5076663;28;20194;-55
2022/04/22 00:03:42;;;;;;;10.10;6.40;;;6.30;1.00;;;;;;5074173;28;21336;-55
2022/04/22 00:06:08;;;;;;;11.10;6.30;;;6.30;1.00;;;;;;5070255;28;20929;-54
2022/04/22 00:08:34;;;;;;;11.23;6.40;;;6.20;1.00;;;;;;5070581;28;20540;-54
2022/04/22 00:13:44;;;;;;;10.70;6.80;;;6.20;20.50;;;;;;5071322;28;20240;-54
2022/04/22 00:16:11;;;;;;;13.63;6.47;;;6.20;33.00;;;;;;5071751;28;20471;-54
2022/04/22 00:18:37;;;;;;;14.43;6.63;;;6.20;91.20;;;;;;5070943;28;20310;-54
2022/04/22 00:21:02;;;;;;;11.40;6.20;;;6.20;93.90;;;;;;5071587;28;20550;-54
2022/04/22 00:23:28;;;;;;;9.80;6.20;;;6.20;93.10;;;;;;5071365;28;20443;-54
2022/04/22 00:25:55;;;;;;;8.47;5.93;;;6.10;99.90;;;;;;5064693;28;20194;-54
2022/04/22 00:28:21;;;;;;;18.00;6.73;;;6.10;99.90;;;;;;5059795;28;20272;-54
2022/04/22 00:30:47;;;;;;;10.67;6.37;;;6.10;99.90;;;;;;5062473;28;20443;-54
2022/04/22 00:33:13;;;;;;;16.40;6.60;;;6.10;99.90;;;;;;5060384;28;20567;-54
2022/04/22 00:35:39;;;;;;;11.00;5.20;;;6.10;99.90;;;;;;5065009;28;20890;-54
2022/04/22 00:38:05;;;;;;;9.00;6.33;;;6.20;99.90;;;;;;5053194;28;20440;-54
2022/04/22 00:40:31;;;;;;;17.30;6.80;;;6.10;99.90;;;;;;5067416;28;20695;-54
2022/04/22 00:42:56;;;;;;;12.13;6.10;;;6.10;99.90;;;;;;5058108;28;20639;-54
2022/04/22 00:45:22;;;;;;;11.63;6.10;;;6.10;99.90;;;;;;5057419;28;20203;-54
2022/04/22 00:47:48;;;;;;;11.90;5.63;;;6.10;99.90;;;;;;5068585;28;20193;-54
2022/04/22 00:50:13;;;;;;;12.47;6.47;;;6.00;99.90;;;;;;5094907;28;20210;-54
2022/04/22 00:52:39;;;;;;;7.50;5.40;;;6.00;99.90;;;;;;5057187;28;20288;-54
2022/04/22 00:55:08;;;;;;;10.90;6.30;;;6.00;99.90;;;;;;5057751;28;20186;-54
2022/04/22 00:57:33;;;;;;;10.93;5.97;;;6.00;99.90;;;;;;5052355;28;20451;-55
2022/04/22 00:59:59;;;;;;;10.17;5.57;;;5.90;99.90;;;;;;5069208;28;20436;-54
2022/04/22 01:02:24;;;;;;;10.57;6.17;;;5.90;99.90;;;;;;5058242;28;20189;-54
2022/04/22 01:10:20;;;;;;;14.53;5.60;;;5.90;99.90;;;;;;5065209;28;20555;-54
2022/04/22 01:12:46;;;;;;;11.30;5.53;;;5.80;99.90;;;;;;5065182;28;20488;-55
2022/04/22 01:15:11;;;;;;;7.90;5.20;;;5.80;99.90;;;;;;5054465;28;20341;-54
2022/04/22 01:17:37;;;;;;;11.90;6.50;;;5.70;99.90;;;;;;5066432;28;20186;-54
2022/04/22 01:20:04;;;;;;;10.63;5.57;;;5.70;99.90;;;;;;5070989;28;20192;-54
2022/04/22 01:22:29;;;;;;;8.83;5.60;;;5.60;99.90;;;;;;5072762;28;20294;-54
2022/04/22 01:25:03;;;;;;;11.70;6.43;;;5.60;99.90;;;;;;5071144;28;21294;-55
2022/04/22 01:27:31;;;;;;;11.27;6.20;;;5.60;99.90;;;;;;5070312;28;20197;-53
2022/04/22 01:30:06;;;;;;;13.67;6.43;;;5.60;1.00;;;;;;5070714;28;20786;-54
2022/04/22 01:32:32;;;;;;;16.37;7.10;;;5.60;99.90;;;;;;5069228;28;20944;-54
2022/04/22 01:34:57;;;;;;;14.20;6.80;;;5.60;1.00;;;;;;5068335;28;20454;-54
2022/04/22 01:37:23;;;;;;;15.60;6.37;;;5.70;1.00;;;;;;5069191;28;20200;-54
2022/04/22 01:39:49;;;;;;;11.33;6.47;;;5.60;99.90;;;;;;5070415;28;20651;-54
2022/04/22 01:42:15;;;;;;;16.03;6.73;;;5.60;99.90;;;;;;5073548;28;20197;-54
2022/04/22 01:44:40;;;;;;;17.63;7.13;;;5.50;99.90;;;;;;5076786;28;20204;-55
2022/04/22 01:47:06;;;;;;;14.33;6.57;;;5.50;99.90;;;;;;5069972;28;20205;-54
2022/04/22 01:49:32;;;;;;;12.37;6.57;;;5.40;99.90;;;;;;5070119;28;20716;-54
2022/04/22 01:52:00;;;;;;;13.03;6.87;;;5.40;1.00;;;;;;5070554;28;20459;-54
2022/04/22 01:54:26;;;;;;;12.03;6.80;;;5.60;1.00;;;;;;5070159;28;20182;-54
2022/04/22 01:56:51;;;;;;;13.40;6.40;;;5.60;1.00;;;;;;5070421;28;20486;-55
2022/04/22 01:59:17;;;;;;;14.03;6.80;;;5.60;1.00;;;;;;5070123;28;20620;-54
2022/04/22 02:01:42;;;;;;;15.07;7.30;;;5.70;1.00;;;;;;5065901;28;20281;-55
2022/04/22 02:04:08;;;;;;;10.83;6.60;;;5.80;1.00;;;;;;5082084;28;20182;-54
2022/04/22 02:06:33;;;;;;;11.03;6.60;;;5.80;1.00;;;;;;5049574;28;20179;-55
2022/04/22 02:08:59;;;;;;;13.57;6.60;;;5.90;1.00;;;;;;5065859;28;20712;-55
2022/04/22 02:11:26;;;;;;;14.23;6.87;;;5.90;1.00;;;;;;5067639;28;20255;-55
2022/04/22 02:13:52;;;;;;;12.13;6.67;;;5.90;1.00;;;;;;5069483;28;20182;-55
2022/04/22 02:16:17;;;;;;;11.77;6.53;;;5.90;1.00;;;;;;5051792;28;20535;-54
2022/04/22 02:18:43;;;;;;;11.33;6.87;;;5.90;1.00;;;;;;5069512;28;20653;-54
2022/04/22 02:21:10;;;;;;;10.73;6.00;;;5.90;1.00;;;;;;5069151;28;20212;-55
2022/04/22 02:23:36;;;;;;;13.23;7.10;;;5.90;1.00;;;;;;5068422;28;20204;-54
2022/04/22 02:26:03;;;;;;;12.17;5.53;;;5.90;1.00;;;;;;5069242;28;20431;-54
2022/04/22 02:28:32;;;;;;;16.00;6.70;;;5.90;1.00;;;;;;5067576;28;20975;-55
2022/04/22 02:31:03;;;;;;;10.37;6.63;;;5.90;1.00;;;;;;5059407;28;20517;-51
2022/04/22 02:33:29;;;;;;;9.70;6.13;;;5.90;1.00;;;;;;5068956;28;20463;-51
2022/04/22 02:35:54;;;;;;;14.17;6.77;;;6.00;1.00;;;;;;5070213;28;20428;-51
2022/04/22 02:38:20;;;;;;;11.10;5.60;;;6.00;1.00;;;;;;5069579;28;20419;-51
2022/04/22 02:46:13;;;;;;;13.40;6.03;;;6.10;99.90;;;;;;5069715;28;20548;-51
2022/04/22 02:48:39;;;;;;;14.57;5.40;;;6.00;99.90;;;;;;5069217;28;20457;-51
2022/04/22 02:51:05;;;;;;;11.07;5.13;;;6.00;99.90;;;;;;5064342;28;21890;-51
2022/04/22 02:53:30;;;;;;;6.83;4.70;;;6.00;99.90;;;;;;5068742;28;20205;-51
2022/04/22 02:55:58;;;;;;;8.77;5.33;;;6.00;99.90;;;;;;5069812;28;20427;-51
2022/04/22 02:58:24;;;;;;;7.27;5.10;;;6.00;99.90;;;;;;5068317;28;20184;-51
2022/04/22 03:00:51;;;;;;;14.63;5.50;;;5.90;99.90;;;;;;5068153;28;20536;-51
2022/04/22 03:03:17;;;;;;;10.37;5.30;;;6.00;99.90;;;;;;5067698;28;20562;-51
2022/04/22 03:05:42;;;;;;;8.83;5.20;;;6.00;99.90;;;;;;5069497;28;20435;-51
2022/04/22 03:08:08;;;;;;;14.00;5.20;;;6.00;99.90;;;;;;5068683;28;20240;-51
2022/04/22 03:10:34;;;;;;;9.80;5.07;;;6.00;99.90;;;;;;5069281;28;20228;-51
2022/04/22 03:12:59;;;;;;;11.40;5.63;;;5.90;99.90;;;;;;5068138;28;21311;-51
2022/04/22 03:15:26;;;;;;;13.77;4.83;;;6.00;99.90;;;;;;5069046;28;20189;-51
2022/04/22 03:17:52;;;;;;;14.57;5.30;;;5.90;99.90;;;;;;5068965;28;20170;-51
2022/04/22 03:20:17;;;;;;;16.57;5.53;;;6.00;99.90;;;;;;5068669;28;20416;-51
2022/04/22 03:22:44;;;;;;;10.90;5.00;;;6.00;99.90;;;;;;5068697;28;20191;-51
2022/04/22 03:25:10;;;;;;;10.70;5.77;;;5.90;99.90;;;;;;5067756;28;20185;-51
2022/04/22 03:27:36;;;;;;;14.30;4.97;;;5.90;99.90;;;;;;5073305;28;20420;-51
2022/04/22 03:30:02;;;;;;;19.37;5.60;;;5.90;99.90;;;;;;5072708;28;20470;-52
2022/04/22 03:32:28;;;;;;;16.50;5.60;;;5.90;99.90;;;;;;5072183;28;20217;-51
2022/04/22 03:34:54;;;;;;;10.60;5.30;;;5.90;99.90;;;;;;5072945;28;20428;-51
2022/04/22 03:37:20;;;;;;;9.70;4.70;;;5.80;99.90;;;;;;5072662;28;20435;-51
2022/04/22 03:39:45;;;;;;;12.97;5.80;;;5.80;99.90;;;;;;5073266;28;20181;-51
2022/04/22 03:42:11;;;;;;;13.73;5.53;;;5.80;1.00;;;;;;5072586;28;20190;-51
2022/04/22 03:44:37;;;;;;;7.53;4.60;;;5.90;1.00;;;;;;5072850;28;20189;-51
2022/04/22 03:47:03;;;;;;;12.20;5.00;;;5.90;99.90;;;;;;5071314;28;20194;-51
2022/04/22 03:49:31;;;;;;;12.67;6.80;;;5.90;99.90;;;;;;5072228;28;20500;-51
2022/04/22 03:51:57;;;;;;;10.00;5.37;;;5.90;99.90;;;;;;5071760;28;20462;-51
2022/04/22 03:54:25;;;;;;;11.80;4.97;;;5.80;99.90;;;;;;5072945;28;20499;-51
2022/04/22 03:59:35;;;;;;;10.10;5.67;;;5.80;99.90;;;;;;5072542;28;20454;-51
2022/04/22 04:02:01;;;;;;;12.50;5.33;;;5.80;99.90;;;;;;5071615;28;20432;-51
2022/04/22 04:04:27;;;;;;;12.27;5.27;;;5.80;99.90;;;;;;5072248;28;20301;-51
2022/04/22 04:06:52;;;;;;;16.80;6.20;;;5.80;99.90;;;;;;5072470;28;20491;-51
2022/04/22 04:17:35;;;;;;;12.00;5.87;;;5.90;99.90;;;;;;5071446;28;20455;-51
2022/04/22 04:25:39;;;;;;;11.37;6.53;;;6.00;99.90;;;;;;5072355;28;20470;-51
2022/04/22 04:28:06;;;;;;;12.13;5.83;;;5.90;99.90;;;;;;5071344;28;20510;-51
2022/04/22 04:30:31;;;;;;;13.00;5.90;;;6.00;99.90;;;;;;5071731;28;20542;-51
2022/04/22 04:32:57;;;;;;;12.80;7.10;;;6.00;99.90;;;;;;5071123;28;20558;-51
2022/04/22 04:35:23;;;;;;;20.73;6.53;;;5.90;99.90;;;;;;5071660;28;20182;-51
2022/04/22 04:37:49;;;;;;;11.63;6.20;;;5.90;99.90;;;;;;5069335;28;20228;-51
2022/04/22 04:40:14;;;;;;;15.37;7.07;;;6.00;99.90;;;;;;5071509;28;20263;-52
2022/04/22 04:42:41;;;;;;;11.97;6.97;;;6.00;99.90;;;;;;5071044;28;20182;-51
2022/04/22 04:45:07;;;;;;;20.80;7.30;;;6.00;99.90;;;;;;5051958;28;20188;-51
2022/04/22 04:47:43;;;;;;;23.10;7.80;;;6.10;99.90;;;;;;5068251;28;20428;-51
2022/04/22 04:50:09;;;;;;;12.50;6.87;;;6.20;99.90;;;;;;5071713;28;20404;-51
2022/04/22 04:52:37;;;;;;;14.17;7.63;;;6.20;99.90;;;;;;5070350;28;20470;-51
2022/04/22 04:55:04;;;;;;;13.03;7.53;;;6.30;99.90;;;;;;5071036;28;20426;-51
2022/04/22 04:57:30;;;;;;;13.37;7.30;;;6.40;99.90;;;;;;5072105;28;20465;-51
2022/04/22 04:59:55;;;;;;;13.37;7.03;;;6.40;99.90;;;;;;5071260;28;20440;-51
2022/04/22 05:02:21;;;;;;;14.20;7.53;;;6.50;99.90;;;;;;5071416;28;20187;-51
2022/04/22 05:04:46;;;;;;;16.43;6.80;;;6.60;99.90;;;;;;5071181;28;20243;-51
2022/04/22 05:07:12;;;;;;;11.37;7.03;;;6.60;99.90;;;;;;5071661;28;20272;-51
2022/04/22 05:09:38;;;;;;;17.87;7.50;;;6.70;90.90;;;;;;5070464;28;20249;-51
2022/04/22 05:12:04;;;;;;;14.77;6.87;;;6.70;95.80;;;;;;5071038;28;21343;-51
2022/04/22 05:14:29;;;;;;;12.30;6.90;;;6.80;50.40;;;;;;5070654;28;20293;-53
2022/04/22 05:16:55;;;;;;;15.03;7.30;;;6.80;35.40;;;;;;5069687;28;20239;-54
2022/04/22 05:19:22;;;;;;;11.90;6.83;;;6.90;13.30;;;;;;5071010;28;20605;-54
2022/04/22 05:21:49;;;;;;;12.83;6.93;;;6.90;1.50;;;;;;5075841;28;20440;-54
2022/04/22 05:24:15;;;;;;;16.53;7.20;;;7.00;1.00;;;;;;5082143;28;20420;-54
2022/04/22 05:26:40;;;;;;;16.93;6.83;;;7.00;1.00;;;;;;5071441;28;20428;-54
2022/04/22 05:32:36;;;;;;;13.17;6.70;;;7.00;1.00;;;;;;5077971;28;20436;-51
2022/04/22 05:34:43;;;;;;;15.33;6.70;;;7.30;1.00;;;;;;5055066;28;20486;-51
2022/04/22 05:37:09;;;;;;;14.17;6.17;;;7.30;1.00;;;;;;5067033;28;20921;-51
2022/04/22 05:39:34;;;;;;;12.83;7.07;;;7.40;1.00;;;;;;5070350;28;20173;-50
2022/04/22 05:42:01;;;;;;;12.93;6.53;;;7.50;1.00;;;;;;5070369;28;20188;-53
2022/04/22 05:44:27;;;;;;;9.50;6.20;;;7.60;1.00;;;;;;5070604;28;20192;-51
2022/04/22 05:46:53;;;;;;;15.40;5.93;;;7.70;1.00;;;;;;5070297;28;20443;-50
2022/04/22 05:49:18;;;;;;;13.93;5.40;;;7.80;1.00;;;;;;5069575;28;20416;-51
2022/04/22 05:51:44;;;;;;;11.50;6.03;;;7.90;1.00;;;;;;5071310;28;20334;-50
2022/04/22 05:54:09;;;;;;;11.57;5.73;;;8.10;1.00;;;;;;5069423;28;20267;-52
2022/04/22 05:56:35;;;;;;;10.80;5.50;;;8.20;1.00;;;;;;5069123;28;20216;-51
2022/04/22 05:59:02;;;;;;;11.80;5.10;;;8.40;1.00;;;;;;5074264;28;20184;-50
2022/04/22 06:01:28;;;;;;;11.80;5.10;;;8.60;1.00;;;;;;5074690;28;20951;-50
2022/04/22 06:03:53;;;;;;;10.53;5.30;;;8.80;99.90;;;;;;5069542;28;20424;-50
2022/04/22 06:06:19;;;;;;;10.53;5.20;;;9.00;99.90;;;;;;5071445;28;20180;-50
2022/04/22 06:11:29;;;;;;;13.23;5.30;;;9.30;99.90;;;;;;5060305;28;20733;-51
2022/04/22 06:13:55;;;;;;;8.97;5.17;;;9.50;99.90;;;;;;5066971;28;20481;-51
2022/04/22 06:16:21;;;;;;;11.20;5.23;;;9.60;99.90;;;;;;5069738;28;20998;-50
2022/04/22 06:18:46;;;;;;;14.40;4.23;;;9.80;99.90;;;;;;5067932;28;20470;-51
2022/04/22 06:21:12;;;;;;;9.37;4.67;;;10.00;99.90;;;;;;5068018;28;20189;-50
2022/04/22 06:23:38;;;;;;;11.37;4.73;;;10.10;99.90;;;;;;5064532;28;20520;-50
2022/04/22 06:26:04;;;;;;;9.57;4.20;;;10.20;99.90;;;;;;5055607;28;20208;-50
2022/04/22 06:28:30;;;;;;;11.37;4.97;;;10.30;99.90;;;;;;5065131;28;20440;-50
2022/04/22 06:30:56;;;;;;;10.97;4.80;;;10.40;99.90;;;;;;5069221;28;20270;-50
2022/04/22 06:33:22;;;;;;;12.33;4.73;;;10.50;99.90;;;;;;5069281;28;20963;-50
2022/04/22 06:35:47;;;;;;;7.73;4.20;;;10.60;99.90;;;;;;5064028;28;20660;-50
2022/04/22 06:38:15;;;;;;;6.57;3.93;;;10.80;99.90;;;;;;5057065;28;20623;-51
2022/04/22 06:46:10;;;;;;;9.17;4.00;;;11.20;99.90;;;;;;5063151;28;20489;-50
2022/04/22 06:48:36;;;;;;;14.00;4.00;;;11.30;99.90;;;;;;5069609;28;20440;-50
2022/04/22 06:51:06;;;;;;;7.50;4.10;;;11.60;99.90;;;;;;5072672;28;20446;-50
2022/04/22 06:53:35;;;;;;;6.43;3.90;;;11.80;99.90;;;;;;5068855;28;20313;-51
2022/04/22 06:56:02;;;;;;;8.20;3.93;;;12.00;99.90;;;;;;5067759;28;20440;-50
2022/04/22 06:58:31;;;;;;;8.67;3.40;;;12.10;99.90;;;;;;5066334;28;20427;-51
2022/04/22 07:00:57;;;;;;;3.87;3.07;;;12.40;99.90;;;;;;5071714;28;20443;-50
2022/04/22 07:03:22;;;;;;;7.53;4.27;;;12.50;99.90;;;;;;5066315;28;20506;-50
2022/04/22 07:05:49;;;;;;;9.93;3.90;;;12.60;99.90;;;;;;5073643;28;20193;-50
2022/04/22 07:08:17;;;;;;;8.67;3.93;;;12.80;99.90;;;;;;5073414;28;20209;-50
2022/04/22 07:10:44;;;;;;;5.00;3.40;;;13.10;99.90;;;;;;5073148;28;20843;-50
2022/04/22 07:13:10;;;;;;;6.47;3.60;;;13.40;99.90;;;;;;5072359;28;21284;-51
2022/04/22 07:15:37;;;;;;;6.43;3.50;;;13.50;99.90;;;;;;5073218;28;20898;-50
2022/04/22 07:18:03;;;;;;;4.77;2.80;;;13.60;99.90;;;;;;5074243;28;20462;-51
2022/04/22 07:20:29;;;;;;;8.40;3.67;;;13.70;99.90;;;;;;5073776;28;20418;-51
2022/04/22 07:22:54;;;;;;;6.57;3.37;;;13.80;99.90;;;;;;5073167;28;20435;-50
2022/04/22 07:25:21;;;;;;;6.83;3.43;;;14.00;99.90;;;;;;5073373;28;20235;-51
2022/04/22 07:27:48;;;;;;;7.13;3.43;;;14.20;99.90;;;;;;5071530;28;20190;-50
2022/04/22 07:30:19;;;;;;;14.57;3.47;;;14.20;99.90;;;;;;5069933;28;20451;-50
2022/04/22 07:32:48;;;;;;;7.57;3.33;;;14.00;99.90;;;;;;5072157;28;20481;-50
2022/04/22 07:35:16;;;;;;;5.60;3.30;;;14.10;99.90;;;;;;5073079;28;20432;-50
2022/04/22 07:37:45;;;;;;;9.60;3.13;;;14.20;99.90;;;;;;5071930;28;20428;-50
2022/04/22 07:40:11;;;;;;;6.80;3.07;;;14.60;99.90;;;;;;5072875;28;20757;-50
2022/04/22 07:42:39;;;;;;;9.83;3.90;;;14.90;99.90;;;;;;5072224;28;20971;-50
2022/04/22 07:47:51;;;;;;;7.50;3.37;;;15.40;99.90;;;;;;5071776;28;20465;-50
2022/04/22 07:50:18;;;;;;;5.73;2.83;;;15.30;99.90;;;;;;5071988;28;20431;-50
2022/04/22 07:52:45;;;;;;;11.10;3.20;;;15.40;99.90;;;;;;5072456;28;20210;-50
2022/04/22 07:55:13;;;;;;;8.20;3.47;;;15.60;99.90;;;;;;5072280;28;20795;-50
2022/04/22 07:57:40;;;;;;;8.67;3.60;;;16.00;99.90;;;;;;5060460;28;20934;-51
2022/04/22 08:00:07;;;;;;;6.47;3.30;;;16.30;99.90;;;;;;5061289;28;20490;-50
2022/04/22 08:02:33;;;;;;;10.23;3.33;;;16.30;99.90;;;;;;5063988;28;20442;-51
2022/04/22 08:04:59;;;;;;;10.53;3.47;;;16.50;99.90;;;;;;5072609;28;20517;-51
2022/04/22 08:07:24;;;;;;;7.87;3.60;;;16.90;99.90;;;;;;5072514;28;21253;-51
2022/04/22 08:09:50;;;;;;;7.77;3.40;;;17.20;99.90;;;;;;5071699;28;20226;-51
2022/04/22 08:12:18;;;;;;;8.93;3.67;;;17.30;99.90;;;;;;5071079;28;20275;-51
2022/04/22 08:14:44;;;;;;;9.43;3.17;;;17.20;99.90;;;;;;5072064;28;20208;-51
2022/04/22 08:17:09;;;;;;;6.73;3.70;;;17.00;99.90;;;;;;5068515;28;20439;-50
2022/04/22 08:19:35;;;;;;;6.67;2.97;;;17.00;99.90;;;;;;5070671;28;20224;-50
2022/04/22 08:22:01;;;;;;;4.40;3.20;;;17.10;99.90;;;;;;5071829;28;20193;-51
2022/04/22 08:24:26;;;;;;;6.30;3.20;;;17.00;99.90;;;;;;5072083;28;20185;-51
2022/04/22 08:26:52;;;;;;;10.20;3.30;;;16.90;99.90;;;;;;5071161;28;20883;-50
2022/04/22 08:29:18;;;;;;;5.33;3.57;;;17.20;99.90;;;;;;5071558;28;20559;-50
2022/04/22 08:31:47;;;;;;;10.47;3.57;;;17.20;99.90;;;;;;5070163;28;20185;-50
2022/04/22 08:34:12;;;;;;;6.50;3.53;;;17.10;99.90;;;;;;5069581;28;20497;-50
2022/04/22 08:36:38;;;;;;;6.63;3.37;;;17.00;99.90;;;;;;5071712;28;20424;-50
2022/04/22 08:39:05;;;;;;;9.63;3.80;;;17.20;99.90;;;;;;5071585;28;20204;-50
2022/04/22 08:41:35;;;;;;;10.37;3.87;;;17.50;99.90;;;;;;5071965;28;20186;-50
2022/04/22 08:44:01;;;;;;;6.67;3.53;;;17.50;99.90;;;;;;5070416;28;20423;-50
2022/04/22 08:51:56;;;;;;;8.53;3.60;;;18.20;99.90;;;;;;5068315;28;20462;-50
2022/04/22 08:54:22;;;;;;;9.07;4.00;;;18.40;99.90;;;;;;5070221;28;20443;-51
2022/04/22 08:56:50;;;;;;;7.60;3.50;;;18.50;99.90;;;;;;5071278;28;20833;-50
2022/04/22 08:59:16;;;;;;;12.60;3.73;;;18.70;99.90;;;;;;5071486;28;20396;-51
2022/04/22 09:01:42;;;;;;;9.73;5.70;;;19.00;99.90;;;;;;5071247;28;20431;-50
2022/04/22 09:04:07;;;;;;;7.90;3.50;;;19.30;99.90;;;;;;5071347;28;20935;-51
2022/04/22 09:06:34;;;;;;;6.97;4.30;;;19.30;99.90;;;;;;5066140;28;20197;-50
2022/04/22 09:08:59;;;;;;;7.60;3.60;;;19.30;99.90;;;;;;5071762;28;20190;-51
2022/04/22 09:11:25;;;;;;;6.30;3.87;;;19.60;99.90;;;;;;5070934;28;20588;-51
2022/04/22 09:13:51;;;;;;;6.80;3.93;;;19.70;99.90;;;;;;5070843;28;20221;-50
2022/04/22 09:16:20;;;;;;;7.57;3.73;;;19.90;99.90;;;;;;5069878;28;20197;-50
2022/04/22 09:18:46;;;;;;;7.43;4.37;;;19.80;99.90;;;;;;5071239;28;20193;-51
2022/04/22 09:21:18;;;;;;;5.10;3.80;;;19.70;99.90;;;;;;5070923;28;20836;-51
2022/04/22 09:23:47;;;;;;;7.47;3.90;;;19.80;99.90;;;;;;5071100;28;20584;-51
2022/04/22 09:26:22;;;;;;;8.10;4.57;;;19.80;99.90;;;;;;5069925;28;20503;-50
2022/04/22 09:28:58;;;;;;;7.13;3.87;;;19.80;99.90;;;;;;5069672;28;20432;-50
2022/04/22 09:31:25;;;;;;;8.03;3.90;;;19.70;99.90;;;;;;5070203;28;20434;-50
2022/04/22 09:33:51;;;;;;;6.60;4.27;;;19.20;99.90;;;;;;5070056;28;20470;-51
2022/04/22 09:44:51;;;;;;;10.53;4.43;;;19.00;99.90;;;;;;5050780;28;20459;-51
2022/04/22 09:47:16;;;;;;;14.23;4.70;;;19.10;99.90;;;;;;5050709;28;20420;-50
2022/04/22 09:49:43;;;;;;;8.60;4.33;;;18.90;99.90;;;;;;5050576;28;20421;-48
2022/04/22 09:52:09;;;;;;;8.93;4.33;;;18.80;99.90;;;;;;5050572;28;20520;-49
2022/04/22 09:54:34;;;;;;;11.23;4.93;;;18.60;99.90;;;;;;5050245;28;20926;-48
2022/04/22 09:57:03;;;;;;;17.13;5.37;;;18.20;99.90;;;;;;5053053;28;20443;-49
2022/04/22 09:59:30;;;;;;;9.33;4.73;;;18.00;99.90;;;;;;5069974;28;20239;-48
2022/04/22 10:01:56;;;;;;;17.70;5.13;;;17.90;99.90;;;;;;5069318;28;20909;-48
2022/04/22 10:04:22;;;;;;;12.33;4.67;;;18.00;99.90;;;;;;5070350;28;20476;-48
2022/04/22 10:06:49;;;;;;;12.83;5.03;;;17.90;99.90;;;;;;5070237;28;20190;-51
2022/04/22 10:09:16;;;;;;;9.20;4.60;;;18.10;99.90;;;;;;5070039;28;20423;-48
2022/04/22 10:11:43;;;;;;;8.50;4.70;;;18.00;99.90;;;;;;5070347;28;20474;-51
2022/04/22 10:14:09;;;;;;;11.00;4.70;;;17.90;99.90;;;;;;5069146;28;20424;-51
2022/04/22 10:16:35;;;;;;;11.23;5.60;;;17.90;99.90;;;;;;5070607;28;20388;-51
2022/04/22 10:19:02;;;;;;;9.10;4.50;;;18.10;99.90;;;;;;5070168;28;20531;-51
2022/04/22 10:21:28;;;;;;;8.03;4.63;;;18.50;99.90;;;;;;5070469;28;20396;-51
2022/04/22 10:23:56;;;;;;;9.40;4.00;;;19.00;99.90;;;;;;5070057;28;20404;-51
2022/04/22 10:26:22;;;;;;;10.70;4.13;;;19.60;99.90;;;;;;5070515;28;20430;-52
2022/04/22 10:28:48;;;;;;;11.50;4.80;;;19.70;99.90;;;;;;5069568;28;20814;-51
2022/04/22 10:31:14;;;;;;;12.97;4.60;;;19.50;99.90;;;;;;5068921;28;20458;-51
2022/04/22 10:33:46;;;;;;;8.07;4.20;;;19.10;99.90;;;;;;5069936;28;20451;-49
2022/04/22 10:36:16;;;;;;;5.73;4.27;;;18.80;99.90;;;;;;5069840;28;20458;-49
2022/04/22 10:38:45;;;;;;;10.20;4.90;;;18.40;99.90;;;;;;5069792;28;20472;-49
2022/04/22 10:41:16;;;;;;;9.63;4.33;;;18.10;99.90;;;;;;5068248;28;20442;-51
2022/04/22 10:43:42;;;;;;;10.40;4.90;;;17.60;99.90;;;;;;5069884;28;20936;-49
2022/04/22 10:49:10;;;;;;;9.30;5.00;;;16.30;99.90;;;;;;5068472;28;20434;-49
2022/04/22 10:52:03;;;;;;;10.10;4.77;;;16.00;99.90;;;;;;5070108;28;20441;-49
2022/04/22 10:54:53;;;;;;;6.00;4.00;;;15.80;99.90;;;;;;5069562;28;20427;-49
2022/04/22 10:57:24;;;;;;;10.57;5.13;;;15.80;99.90;;;;;;5069576;28;20439;-50
2022/04/22 11:00:10;;;;;;;10.57;4.73;;;15.80;99.90;;;;;;5066143;28;20452;-50
2022/04/22 11:02:40;;;;;;;11.17;4.90;;;15.90;99.90;;;;;;5055521;28;20445;-49
2022/04/22 11:05:20;;;;;;;5.83;4.30;;;16.10;99.90;;;;;;5059096;28;20437;-50
2022/04/22 11:07:56;;;;;;;9.90;4.73;;;16.30;99.90;;;;;;5061914;28;20438;-50
2022/04/22 11:10:22;;;;;;;14.50;5.30;;;16.40;99.90;;;;;;5056912;28;20483;-49
2022/04/22 11:12:54;;;;;;;25.83;13.60;;;16.30;99.90;;;;;;5066534;28;20873;-50
2022/04/22 11:15:41;;;;;;;112.93;53.37;;;16.00;99.90;;;;;;5069485;28;20392;-50
2022/04/22 11:18:12;;;;;;;27.50;13.83;;;15.60;99.90;;;;;;5066501;28;20466;-50
2022/04/22 11:20:38;;;;;;;15.03;5.33;;;15.50;99.90;;;;;;5067458;28;20496;-51
2022/04/22 11:23:09;;;;;;;16.40;5.07;;;15.60;99.90;;;;;;5067814;28;20447;-50
2022/04/22 11:25:35;;;;;;;11.10;4.87;;;15.60;99.90;;;;;;5093909;28;20781;-50
2022/04/22 11:28:02;;;;;;;9.97;5.07;;;15.70;99.90;;;;;;5060755;28;20452;-50
2022/04/22 11:30:28;;;;;;;10.20;4.90;;;15.80;99.90;;;;;;5067204;28;20802;-50
2022/04/22 11:33:08;;;;;;;10.77;5.23;;;15.80;99.90;;;;;;5066803;28;20460;-50
2022/04/22 11:35:34;;;;;;;9.23;4.23;;;15.90;99.90;;;;;;5067541;28;20607;-51
2022/04/22 11:38:04;;;;;;;12.50;5.17;;;16.00;99.90;;;;;;5069369;28;20439;-50
2022/04/22 11:40:35;;;;;;;11.57;5.03;;;16.10;99.90;;;;;;5069380;28;20420;-50
2022/04/22 11:43:12;;;;;;;16.33;5.00;;;16.00;99.90;;;;;;5069344;28;20419;-52
2022/04/22 11:45:43;;;;;;;13.87;5.17;;;16.00;99.90;;;;;;5064368;28;20793;-50
2022/04/22 11:48:13;;;;;;;13.27;4.40;;;16.00;99.90;;;;;;5070592;28;20420;-49
2022/04/22 11:50:41;;;;;;;11.13;5.20;;;16.00;99.90;;;;;;5064931;28;20545;-50
2022/04/22 11:53:32;;;;;;;7.33;4.80;;;16.50;99.90;;;;;;5072262;28;20459;-50
2022/04/22 11:55:58;;;;;;;16.60;4.57;;;17.40;99.90;;;;;;5072337;28;20489;-50
2022/04/22 11:58:24;;;;;;;8.63;4.70;;;18.60;99.90;;;;;;5072262;28;21213;-55
2022/04/22 12:06:21;;;;;;;10.90;5.20;;;20.20;99.90;;;;;;5072049;28;20431;-50
2022/04/22 12:08:57;;;;;;;11.00;5.00;;;20.10;99.90;;;;;;5069556;28;20567;-50
2022/04/22 12:11:24;;;;;;;6.20;4.00;;;20.00;99.90;;;;;;5070874;28;20475;-51
2022/04/22 12:13:50;;;;;;;8.20;4.60;;;20.30;99.90;;;;;;5072621;28;20468;-51
2022/04/22 12:16:21;;;;;;;8.40;4.80;;;20.50;99.90;;;;;;5065822;28;20451;-50
2022/04/22 12:18:48;;;;;;;11.63;4.63;;;20.80;99.90;;;;;;5070510;28;20440;-50
2022/04/22 12:21:15;;;;;;;10.50;5.10;;;21.20;99.90;;;;;;5075027;28;20440;-50
2022/04/22 12:23:44;;;;;;;7.63;4.00;;;21.10;99.90;;;;;;5070362;28;20439;-50
2022/04/22 12:26:26;;;;;;;10.40;5.00;;;21.50;99.90;;;;;;5072063;28;20428;-50
2022/04/22 12:28:59;;;;;;;9.43;4.13;;;21.50;99.90;;;;;;5072049;28;20432;-51
2022/04/22 12:31:26;;;;;;;9.10;4.83;;;21.90;99.90;;;;;;5072110;28;20447;-50
2022/04/22 12:34:06;;;;;;;11.87;4.40;;;21.90;99.90;;;;;;5070900;28;20472;-51
2022/04/22 12:36:56;;;;;;;6.17;4.23;;;22.20;99.90;;;;;;5070720;28;20629;-50
2022/04/22 12:39:44;;;;;;;7.37;4.47;;;22.40;99.90;;;;;;5071363;28;20455;-50
2022/04/22 12:42:16;;;;;;;7.10;4.20;;;22.90;99.90;;;;;;5054021;28;20497;-50
2022/04/22 12:52:07;;;;;;;6.30;4.00;;;23.00;99.90;;;;;;5069006;28;20440;-50
2022/04/22 12:52:56;;;;;;;10.60;5.33;;;22.20;99.90;;;;;;5069984;28;20472;-50
2022/04/22 12:55:22;;;;;;;10.13;4.77;;;22.40;99.90;;;;;;5071201;28;20448;-50
2022/04/22 12:58:00;;;;;;;9.80;5.03;;;22.70;99.90;;;;;;5068377;28;20631;-50
2022/04/22 13:00:26;;;;;;;13.97;5.40;;;23.20;99.90;;;;;;5070533;28;20754;-50
2022/04/22 13:02:52;;;;;;;6.50;4.60;;;23.10;99.90;;;;;;5070373;28;20454;-51
2022/04/22 13:05:19;;;;;;;11.10;5.63;;;22.50;99.90;;;;;;5071118;28;21246;-50
2022/04/22 13:07:46;;;;;;;10.53;5.47;;;21.30;99.90;;;;;;5071392;28;20189;-50
2022/04/22 13:10:16;;;;;;;11.60;5.63;;;20.30;99.90;;;;;;5069804;28;21146;-50
2022/04/22 13:12:43;;;;;;;29.57;6.10;;;19.60;99.90;;;;;;5074780;28;21113;-50
2022/04/22 13:15:17;;;;;;;14.30;5.93;;;19.20;99.90;;;;;;5075403;28;20435;-50
2022/04/22 13:17:44;;;;;;;9.93;5.13;;;19.30;99.90;;;;;;5071703;28;21171;-50
2022/04/22 13:20:12;;;;;;;11.40;5.50;;;19.70;99.90;;;;;;5071239;28;20506;-50
2022/04/22 13:22:38;;;;;;;7.47;4.70;;;20.50;99.90;;;;;;5072676;28;20438;-50
2022/04/22 13:25:05;;;;;;;12.77;5.43;;;21.30;99.90;;;;;;5070604;28;20474;-50
2022/04/22 13:27:31;;;;;;;8.40;4.67;;;22.10;99.90;;;;;;5063279;28;20466;-50
2022/04/22 13:29:56;;;;;;;10.20;4.30;;;22.20;99.90;;;;;;5070336;28;20440;-50
2022/04/22 13:32:22;;;;;;;11.37;4.53;;;22.50;99.90;;;;;;5061029;28;20340;-50
2022/04/22 13:34:48;;;;;;;8.90;4.53;;;22.60;99.90;;;;;;5069607;28;20660;-50
2022/04/22 13:37:13;;;;;;;8.03;4.37;;;22.50;99.90;;;;;;5061215;28;20197;-50
2022/04/22 13:39:39;;;;;;;10.70;4.90;;;22.60;99.90;;;;;;5070336;28;20193;-50
2022/04/22 13:42:04;;;;;;;6.10;3.90;;;22.60;99.90;;;;;;5067843;28;20186;-50
2022/04/22 13:52:44;;;;;;;9.97;4.17;;;23.40;99.90;;;;;;5070445;28;20536;-51
2022/04/22 13:55:11;;;;;;;7.37;3.80;;;23.60;99.90;;;;;;5067564;28;20455;-51
2022/04/22 13:57:36;;;;;;;7.77;3.67;;;23.60;99.90;;;;;;5067867;28;20192;-51
2022/04/22 14:00:04;;;;;;;15.53;4.07;;;23.10;99.90;;;;;;5068148;28;20515;-51
2022/04/22 14:02:30;;;;;;;8.47;4.67;;;22.00;99.90;;;;;;5070412;28;20231;-51
2022/04/22 14:04:55;;;;;;;9.77;4.60;;;20.80;99.90;;;;;;5069302;28;20945;-50
2022/04/22 14:07:21;;;;;;;8.73;4.33;;;19.80;99.90;;;;;;5069757;28;20412;-51